sensor_id;sensor_type;location;lat;lon;timestamp;pressure;altitude;pressure_sealevel;temperature;humidity
20444;BME280;10381;53.730;10.010;2022-10-31T00:03:25;101597.81;;;8.89;100.00
20444;BME280;10381;53.730;10.010;2022-10-31T00:07:26;101602.47;;;8.99;100.00
20444;BME280;10381;53.730;10.010;2022-10-31T00:11:26;101607.22;;;8.93;100.00
20444;BME280;10381;53.730;10.010;2022-10-31T00:15:27;101602.91;;;9.05;100.00
20444;BME280;10381;53.730;10.010;2022-10-31T00:19:27;101609.56;;;9.86;100.00
20444;BME280;10381;53.730;10.010;2022-10-31T00:23:27;101621.78;;;10.83;100.00
20444;BME280;10381;53.730;10.010;2022-10-31T00:27:28;101627.34;;;10.80;100.00
20444;BME280;10381;53.730;10.010;2022-10-31T00:31:28;101626.47;;;10.80;100.00
20444;BME280;10381;53.730;10.010;2022-10-31T00:35:28;101634.97;;;11.07;100.00
20444;BME280;10381;53.730;10.010;2022-10-31T00:39:29;101642.75;;;11.33;100.00
20444;BME280;10381;53.730;10.010;2022-10-31T00:43:29;101638.50;;;11.53;100.00
20444;BME280;10381;53.730;10.010;2022-10-31T00:47:29;101644.41;;;11.57;100.00
20444;BME280;10381;53.730;10.010;2022-10-31T00:51:29;101633.81;;;11.34;100.00
20444;BME280;10381;53.730;10.010;2022-10-31T00:55:30;101643.44;;;11.35;100.00
20444;BME280;10381;53.730;10.010;2022-10-31T00:59:30;101632.94;;;11.00;100.00
20444;BME280;10381;53.730;10.010;2022-10-31T01:03:31;101633.78;;;11.12;100.00
20444;BME280;10381;53.730;10.010;2022-10-31T01:07:35;101636.16;;;11.03;100.00
20444;BME280;10381;53.730;10.010;2022-10-31T01:11:36;101635.88;;;10.84;100.00
20444;BME280;10381;53.730;10.010;2022-10-31T01:15:36;101646.44;;;11.19;100.00
20444;BME280;10381;53.730;10.010;2022-10-31T01:19:36;101652.84;;;11.17;100.00
20444;BME280;10381;53.730;10.010;2022-10-31T01:23:37;101653.84;;;11.38;100.00
20444;BME280;10381;53.730;10.010;2022-10-31T01:27:38;101661.78;;;11.72;100.00
20444;BME280;10381;53.730;10.010;2022-10-31T01:31:39;101666.00;;;11.97;100.00
20444;BME280;10381;53.730;10.010;2022-10-31T01:35:39;101676.00;;;12.16;100.00
20444;BME280;10381;53.730;10.010;2022-10-31T01:39:39;101670.09;;;12.12;100.00
20444;BME280;10381;53.730;10.010;2022-10-31T01:47:51;101678.94;;;11.90;100.00
20444;BME280;10381;53.730;10.010;2022-10-31T01:51:59;101679.06;;;11.89;100.00
20444;BME280;10381;53.730;10.010;2022-10-31T01:56:01;101688.09;;;11.86;100.00
20444;BME280;10381;53.730;10.010;2022-10-31T02:00:07;101689.03;;;11.85;100.00
20444;BME280;10381;53.730;10.010;2022-10-31T02:04:07;101682.06;;;11.62;100.00
20444;BME280;10381;53.730;10.010;2022-10-31T02:08:25;101697.03;;;11.74;100.00
20444;BME280;10381;53.730;10.010;2022-10-31T02:12:26;101694.63;;;11.60;100.00
20444;BME280;10381;53.730;10.010;2022-10-31T02:16:27;101690.63;;;11.54;100.00
20444;BME280;10381;53.730;10.010;2022-10-31T02:29:16;101705.22;;;11.60;100.00
20444;BME280;10381;53.730;10.010;2022-10-31T02:37:49;101714.75;;;11.85;100.00
20444;BME280;10381;53.730;10.010;2022-10-31T02:46:45;101723.22;;;12.01;100.00
20444;BME280;10381;53.730;10.010;2022-10-31T02:50:48;101724.91;;;12.02;100.00
20444;BME280;10381;53.730;10.010;2022-10-31T02:54:51;101720.22;;;12.06;100.00
20444;BME280;10381;53.730;10.010;2022-10-31T02:58:56;101718.66;;;12.03;100.00
20444;BME280;10381;53.730;10.010;2022-10-31T03:07:23;101727.34;;;11.94;100.00
20444;BME280;10381;53.730;10.010;2022-10-31T03:11:32;101731.66;;;11.95;100.00
20444;BME280;10381;53.730;10.010;2022-10-31T03:15:43;101734.31;;;11.84;100.00
20444;BME280;10381;53.730;10.010;2022-10-31T03:19:47;101740.69;;;11.70;100.00
20444;BME280;10381;53.730;10.010;2022-10-31T03:23:50;101742.88;;;11.65;100.00
20444;BME280;10381;53.730;10.010;2022-10-31T03:27:51;101743.09;;;11.50;100.00
20444;BME280;10381;53.730;10.010;2022-10-31T03:31:58;101745.59;;;11.41;100.00
20444;BME280;10381;53.730;10.010;2022-10-31T03:36:02;101751.47;;;11.22;100.00
20444;BME280;10381;53.730;10.010;2022-10-31T03:40:06;101749.25;;;11.16;100.00
20444;BME280;10381;53.730;10.010;2022-10-31T03:44:12;101753.97;;;11.12;100.00
20444;BME280;10381;53.730;10.010;2022-10-31T03:48:16;101757.34;;;11.14;100.00
20444;BME280;10381;53.730;10.010;2022-10-31T03:52:25;101763.84;;;11.10;100.00
20444;BME280;10381;53.730;10.010;2022-10-31T03:56:34;101764.94;;;10.83;100.00
20444;BME280;10381;53.730;10.010;2022-10-31T04:00:39;101770.97;;;10.85;100.00
20444;BME280;10381;53.730;10.010;2022-10-31T04:04:42;101775.44;;;11.20;100.00
20444;BME280;10381;53.730;10.010;2022-10-31T04:08:49;101777.56;;;11.39;100.00
20444;BME280;10381;53.730;10.010;2022-10-31T04:12:55;101789.88;;;11.51;100.00
20444;BME280;10381;53.730;10.010;2022-10-31T04:16:58;101787.38;;;11.61;100.00
20444;BME280;10381;53.730;10.010;2022-10-31T04:21:05;101789.56;;;11.67;100.00
20444;BME280;10381;53.730;10.010;2022-10-31T04:25:06;101795.59;;;11.69;100.00
20444;BME280;10381;53.730;10.010;2022-10-31T04:29:07;101786.22;;;11.77;100.00
20444;BME280;10381;53.730;10.010;2022-10-31T04:33:07;101792.25;;;11.79;100.00
20444;BME280;10381;53.730;10.010;2022-10-31T04:37:07;101794.75;;;11.80;100.00
20444;BME280;10381;53.730;10.010;2022-10-31T04:41:07;101803.47;;;11.82;100.00
20444;BME280;10381;53.730;10.010;2022-10-31T04:45:08;101804.19;;;11.84;100.00
20444;BME280;10381;53.730;10.010;2022-10-31T04:49:08;101803.47;;;11.82;100.00
20444;BME280;10381;53.730;10.010;2022-10-31T04:53:09;101813.34;;;11.80;100.00
20444;BME280;10381;53.730;10.010;2022-10-31T04:57:09;101814.19;;;11.81;100.00
20444;BME280;10381;53.730;10.010;2022-10-31T05:01:09;101817.94;;;11.78;100.00
20444;BME280;10381;53.730;10.010;2022-10-31T05:05:10;101809.84;;;11.80;100.00
20444;BME280;10381;53.730;10.010;2022-10-31T05:09:10;101809.75;;;11.81;100.00
20444;BME280;10381;53.730;10.010;2022-10-31T05:13:11;101815.75;;;11.83;100.00
20444;BME280;10381;53.730;10.010;2022-10-31T05:17:11;101812.06;;;11.86;100.00
20444;BME280;10381;53.730;10.010;2022-10-31T05:21:11;101810.13;;;11.88;100.00
20444;BME280;10381;53.730;10.010;2022-10-31T05:25:12;101814.34;;;11.90;100.00
20444;BME280;10381;53.730;10.010;2022-10-31T05:29:12;101813.28;;;11.93;100.00
20444;BME280;10381;53.730;10.010;2022-10-31T05:33:13;101815.81;;;11.94;100.00
20444;BME280;10381;53.730;10.010;2022-10-31T05:37:13;101813.41;;;11.91;100.00
20444;BME280;10381;53.730;10.010;2022-10-31T05:41:13;101810.75;;;11.91;100.00
20444;BME280;10381;53.730;10.010;2022-10-31T05:45:15;101814.34;;;11.90;100.00
20444;BME280;10381;53.730;10.010;2022-10-31T05:49:16;101819.66;;;11.90;100.00
20444;BME280;10381;53.730;10.010;2022-10-31T05:53:17;101809.91;;;11.91;100.00
20444;BME280;10381;53.730;10.010;2022-10-31T05:57:17;101822.47;;;11.89;100.00
20444;BME280;10381;53.730;10.010;2022-10-31T06:01:18;101812.41;;;11.81;100.00
20444;BME280;10381;53.730;10.010;2022-10-31T06:05:18;101813.25;;;11.82;100.00
20444;BME280;10381;53.730;10.010;2022-10-31T06:09:18;101808.88;;;11.81;100.00
20444;BME280;10381;53.730;10.010;2022-10-31T06:13:18;101818.66;;;11.80;100.00
20444;BME280;10381;53.730;10.010;2022-10-31T06:17:19;101823.47;;;11.75;100.00
20444;BME280;10381;53.730;10.010;2022-10-31T06:21:19;101833.16;;;11.76;100.00
20444;BME280;10381;53.730;10.010;2022-10-31T06:25:19;101839.50;;;11.73;100.00
20444;BME280;10381;53.730;10.010;2022-10-31T06:29:20;101845.91;;;11.71;100.00
20444;BME280;10381;53.730;10.010;2022-10-31T06:33:20;101836.75;;;11.75;100.00
20444;BME280;10381;53.730;10.010;2022-10-31T06:37:20;101834.84;;;11.77;100.00
20444;BME280;10381;53.730;10.010;2022-10-31T06:41:21;101834.13;;;11.86;100.00
20444;BME280;10381;53.730;10.010;2022-10-31T06:45:22;101852.22;;;11.81;100.00
20444;BME280;10381;53.730;10.010;2022-10-31T06:49:22;101856.31;;;11.85;100.00
20444;BME280;10381;53.730;10.010;2022-10-31T06:53:22;101858.44;;;11.93;100.00
20444;BME280;10381;53.730;10.010;2022-10-31T06:57:23;101862.16;;;11.90;100.00
20444;BME280;10381;53.730;10.010;2022-10-31T07:01:23;101867.34;;;11.92;100.00
20444;BME280;10381;53.730;10.010;2022-10-31T07:05:24;101868.66;;;11.86;100.00
20444;BME280;10381;53.730;10.010;2022-10-31T07:09:25;101866.22;;;11.83;100.00
20444;BME280;10381;53.730;10.010;2022-10-31T07:13:25;101871.41;;;11.85;100.00
20444;BME280;10381;53.730;10.010;2022-10-31T07:17:25;101879.47;;;11.83;100.00
20444;BME280;10381;53.730;10.010;2022-10-31T07:21:26;101883.22;;;11.81;100.00
20444;BME280;10381;53.730;10.010;2022-10-31T07:25:26;101888.66;;;11.79;100.00
20444;BME280;10381;53.730;10.010;2022-10-31T07:29:27;101891.81;;;11.84;100.00
20444;BME280;10381;53.730;10.010;2022-10-31T07:33:27;101895.31;;;11.85;100.00
20444;BME280;10381;53.730;10.010;2022-10-31T07:37:27;101901.28;;;11.88;100.00
20444;BME280;10381;53.730;10.010;2022-10-31T07:41:27;101899.56;;;11.87;100.00
20444;BME280;10381;53.730;10.010;2022-10-31T07:45:28;101903.69;;;11.91;100.00
20444;BME280;10381;53.730;10.010;2022-10-31T07:49:28;101909.25;;;11.88;100.00
20444;BME280;10381;53.730;10.010;2022-10-31T07:53:28;101897.22;;;11.83;100.00
20444;BME280;10381;53.730;10.010;2022-10-31T07:57:29;101909.78;;;11.81;100.00
20444;BME280;10381;53.730;10.010;2022-10-31T08:01:29;101913.59;;;11.89;100.00
20444;BME280;10381;53.730;10.010;2022-10-31T08:05:30;101920.56;;;11.90;100.00
20444;BME280;10381;53.730;10.010;2022-10-31T08:09:30;101914.31;;;11.67;100.00
20444;BME280;10381;53.730;10.010;2022-10-31T08:13:31;101910.34;;;11.62;100.00
20444;BME280;10381;53.730;10.010;2022-10-31T08:17:35;101916.19;;;11.54;100.00
20444;BME280;10381;53.730;10.010;2022-10-31T08:21:35;101912.09;;;11.50;100.00
20444;BME280;10381;53.730;10.010;2022-10-31T08:25:36;101918.78;;;11.67;100.00
20444;BME280;10381;53.730;10.010;2022-10-31T08:29:37;101909.41;;;11.74;100.00
20444;BME280;10381;53.730;10.010;2022-10-31T08:33:37;101920.53;;;11.79;100.00
20444;BME280;10381;53.730;10.010;2022-10-31T08:37:37;101911.31;;;12.07;100.00
20444;BME280;10381;53.730;10.010;2022-10-31T08:41:38;101918.75;;;12.38;100.00
20444;BME280;10381;53.730;10.010;2022-10-31T08:45:39;101915.78;;;12.07;100.00
20444;BME280;10381;53.730;10.010;2022-10-31T08:49:39;101912.88;;;11.99;100.00
20444;BME280;10381;53.730;10.010;2022-10-31T08:53:39;101918.63;;;12.50;100.00
20444;BME280;10381;53.730;10.010;2022-10-31T08:57:40;101918.50;;;12.41;100.00
20444;BME280;10381;53.730;10.010;2022-10-31T09:01:40;101920.66;;;12.24;100.00
20444;BME280;10381;53.730;10.010;2022-10-31T09:05:41;101920.88;;;12.10;100.00
20444;BME280;10381;53.730;10.010;2022-10-31T09:09:41;101918.44;;;12.07;100.00
20444;BME280;10381;53.730;10.010;2022-10-31T09:13:41;101916.41;;;12.10;100.00
20444;BME280;10381;53.730;10.010;2022-10-31T09:17:46;101922.38;;;12.36;100.00
20444;BME280;10381;53.730;10.010;2022-10-31T09:21:47;101911.47;;;12.17;100.00
20444;BME280;10381;53.730;10.010;2022-10-31T09:25:49;101903.63;;;12.15;100.00
20444;BME280;10381;53.730;10.010;2022-10-31T09:29:49;101894.81;;;12.26;100.00
20444;BME280;10381;53.730;10.010;2022-10-31T09:33:49;101896.00;;;12.11;100.00
20444;BME280;10381;53.730;10.010;2022-10-31T09:38:00;101894.81;;;12.26;100.00
20444;BME280;10381;53.730;10.010;2022-10-31T09:42:19;101906.91;;;12.30;100.00
20444;BME280;10381;53.730;10.010;2022-10-31T09:50:49;101920.09;;;12.66;100.00
20444;BME280;10381;53.730;10.010;2022-10-31T09:54:57;101914.88;;;12.53;100.00
20444;BME280;10381;53.730;10.010;2022-10-31T09:59:00;101917.81;;;11.92;100.00
20444;BME280;10381;53.730;10.010;2022-10-31T10:03:11;101936.13;;;12.30;100.00
20444;BME280;10381;53.730;10.010;2022-10-31T10:17:21;101930.06;;;12.96;100.00
20444;BME280;10381;53.730;10.010;2022-10-31T10:21:39;101931.34;;;13.68;100.00
20444;BME280;10381;53.730;10.010;2022-10-31T10:25:47;101924.09;;;13.70;100.00
20444;BME280;10381;53.730;10.010;2022-10-31T10:30:03;101924.34;;;14.30;100.00
20444;BME280;10381;53.730;10.010;2022-10-31T10:34:12;101918.34;;;14.37;100.00
20444;BME280;10381;53.730;10.010;2022-10-31T10:42:25;101903.97;;;12.90;100.00
20444;BME280;10381;53.730;10.010;2022-10-31T10:46:51;101884.09;;;13.81;100.00
20444;BME280;10381;53.730;10.010;2022-10-31T10:51:40;101872.88;;;13.66;100.00
20444;BME280;10381;53.730;10.010;2022-10-31T10:55:50;101839.72;;;13.06;100.00
20444;BME280;10381;53.730;10.010;2022-10-31T10:59:52;101835.09;;;13.19;100.00
20444;BME280;10381;53.730;10.010;2022-10-31T11:03:53;101830.16;;;13.89;100.00
20444;BME280;10381;53.730;10.010;2022-10-31T11:07:53;101810.84;;;13.75;100.00
20444;BME280;10381;53.730;10.010;2022-10-31T11:11:54;101802.13;;;13.94;100.00
20444;BME280;10381;53.730;10.010;2022-10-31T11:20:05;101783.72;;;13.81;100.00
20444;BME280;10381;53.730;10.010;2022-10-31T11:24:24;101779.72;;;13.45;100.00
20444;BME280;10381;53.730;10.010;2022-10-31T11:28:29;101763.75;;;14.06;100.00
20444;BME280;10381;53.730;10.010;2022-10-31T11:32:29;101763.38;;;14.61;100.00
20444;BME280;10381;53.730;10.010;2022-10-31T11:36:32;101752.78;;;14.40;100.00
20444;BME280;10381;53.730;10.010;2022-10-31T11:40:34;101744.72;;;14.71;100.00
20444;BME280;10381;53.730;10.010;2022-10-31T11:44:34;101728.88;;;14.89;100.00
20444;BME280;10381;53.730;10.010;2022-10-31T11:48:35;101723.31;;;14.42;100.00
20444;BME280;10381;53.730;10.010;2022-10-31T11:52:37;101730.13;;;14.85;100.00
20444;BME280;10381;53.730;10.010;2022-10-31T11:56:40;101727.03;;;14.89;100.00
20444;BME280;10381;53.730;10.010;2022-10-31T12:00:49;101730.09;;;15.24;100.00
20444;BME280;10381;53.730;10.010;2022-10-31T12:05:25;101713.66;;;14.51;100.00
20444;BME280;10381;53.730;10.010;2022-10-31T12:09:34;101711.53;;;14.44;100.00
20444;BME280;10381;53.730;10.010;2022-10-31T12:14:00;101704.72;;;14.81;100.00
20444;BME280;10381;53.730;10.010;2022-10-31T12:18:16;101705.72;;;14.60;100.00
20444;BME280;10381;53.730;10.010;2022-10-31T12:27:40;101705.81;;;13.99;100.00
20444;BME280;10381;53.730;10.010;2022-10-31T12:36:31;101699.75;;;13.56;100.00
20444;BME280;10381;53.730;10.010;2022-10-31T12:45:07;101706.66;;;13.99;100.00
20444;BME280;10381;53.730;10.010;2022-10-31T12:58:25;101682.31;;;15.68;100.00
20444;BME280;10381;53.730;10.010;2022-10-31T13:06:39;101671.53;;;15.60;100.00
20444;BME280;10381;53.730;10.010;2022-10-31T13:10:45;101664.84;;;15.46;100.00
20444;BME280;10381;53.730;10.010;2022-10-31T13:14:53;101662.44;;;14.86;100.00
20444;BME280;10381;53.730;10.010;2022-10-31T13:18:58;101655.97;;;14.49;100.00
20444;BME280;10381;53.730;10.010;2022-10-31T13:23:10;101664.53;;;14.34;100.00
20444;BME280;10381;53.730;10.010;2022-10-31T13:27:24;101664.13;;;14.48;100.00
20444;BME280;10381;53.730;10.010;2022-10-31T13:31:25;101654.63;;;14.65;100.00
20444;BME280;10381;53.730;10.010;2022-10-31T13:35:31;101650.66;;;14.79;100.00
20444;BME280;10381;53.730;10.010;2022-10-31T13:44:20;101638.44;;;14.37;100.00
20444;BME280;10381;53.730;10.010;2022-10-31T13:52:27;101644.47;;;14.49;100.00
20444;BME280;10381;53.730;10.010;2022-10-31T13:56:30;101634.94;;;14.66;100.00
20444;BME280;10381;53.730;10.010;2022-10-31T14:00:31;101622.00;;;14.22;100.00
20444;BME280;10381;53.730;10.010;2022-10-31T14:04:50;101612.84;;;13.96;100.00
20444;BME280;10381;53.730;10.010;2022-10-31T14:08:52;101604.13;;;13.74;100.00
20444;BME280;10381;53.730;10.010;2022-10-31T14:13:03;101610.94;;;13.57;100.00
20444;BME280;10381;53.730;10.010;2022-10-31T14:17:05;101604.38;;;13.61;100.00
20444;BME280;10381;53.730;10.010;2022-10-31T14:25:33;101600.53;;;13.45;100.00
20444;BME280;10381;53.730;10.010;2022-10-31T14:29:34;101607.22;;;13.39;100.00
20444;BME280;10381;53.730;10.010;2022-10-31T14:33:34;101605.00;;;13.44;100.00
20444;BME280;10381;53.730;10.010;2022-10-31T14:42:24;101583.88;;;13.21;100.00
20444;BME280;10381;53.730;10.010;2022-10-31T14:50:50;101597.47;;;12.97;100.00
20444;BME280;10381;53.730;10.010;2022-10-31T14:54:53;101585.34;;;12.84;100.00
20444;BME280;10381;53.730;10.010;2022-10-31T14:59:00;101564.94;;;12.63;100.00
20444;BME280;10381;53.730;10.010;2022-10-31T15:07:15;101595.97;;;12.42;100.00
20444;BME280;10381;53.730;10.010;2022-10-31T15:15:25;101612.84;;;12.52;100.00
20444;BME280;10381;53.730;10.010;2022-10-31T15:19:28;101615.94;;;12.57;100.00
20444;BME280;10381;53.730;10.010;2022-10-31T15:23:29;101604.59;;;12.55;100.00
20444;BME280;10381;53.730;10.010;2022-10-31T15:27:30;101604.13;;;12.50;100.00
20444;BME280;10381;53.730;10.010;2022-10-31T15:31:32;101608.63;;;12.49;100.00
20444;BME280;10381;53.730;10.010;2022-10-31T15:35:32;101611.41;;;12.48;100.00
20444;BME280;10381;53.730;10.010;2022-10-31T15:39:33;101604.13;;;12.50;100.00
20444;BME280;10381;53.730;10.010;2022-10-31T15:43:36;101583.25;;;12.45;100.00
20444;BME280;10381;53.730;10.010;2022-10-31T15:47:38;101573.28;;;12.38;100.00
20444;BME280;10381;53.730;10.010;2022-10-31T15:51:39;101560.91;;;12.27;100.00
20444;BME280;10381;53.730;10.010;2022-10-31T15:55:49;101543.56;;;12.11;100.00
20444;BME280;10381;53.730;10.010;2022-10-31T15:59:51;101534.66;;;12.01;100.00
20444;BME280;10381;53.730;10.010;2022-10-31T16:03:59;101541.34;;;11.96;100.00
20444;BME280;10381;53.730;10.010;2022-10-31T16:08:00;101549.69;;;11.91;100.00
20444;BME280;10381;53.730;10.010;2022-10-31T16:12:00;101547.38;;;11.86;100.00
20444;BME280;10381;53.730;10.010;2022-10-31T16:16:03;101554.63;;;11.84;100.00
20444;BME280;10381;53.730;10.010;2022-10-31T16:20:05;101542.53;;;11.80;100.00
20444;BME280;10381;53.730;10.010;2022-10-31T16:28:21;101559.81;;;11.75;100.00
20444;BME280;10381;53.730;10.010;2022-10-31T16:32:52;101562.13;;;11.68;100.00
20444;BME280;10381;53.730;10.010;2022-10-31T16:36:53;101573.47;;;11.59;100.00
20444;BME280;10381;53.730;10.010;2022-10-31T16:40:53;101571.91;;;11.56;100.00
20444;BME280;10381;53.730;10.010;2022-10-31T16:44:54;101563.00;;;11.57;100.00
20444;BME280;10381;53.730;10.010;2022-10-31T16:48:54;101559.38;;;11.58;100.00
20444;BME280;10381;53.730;10.010;2022-10-31T16:52:55;101552.63;;;11.54;100.00
20444;BME280;10381;53.730;10.010;2022-10-31T16:56:55;101566.59;;;11.56;100.00
20444;BME280;10381;53.730;10.010;2022-10-31T17:00:58;101565.50;;;11.59;100.00
20444;BME280;10381;53.730;10.010;2022-10-31T17:04:58;101570.00;;;11.58;100.00
20444;BME280;10381;53.730;10.010;2022-10-31T17:08:58;101573.94;;;11.64;100.00
20444;BME280;10381;53.730;10.010;2022-10-31T17:13:00;101561.53;;;11.64;100.00
20444;BME280;10381;53.730;10.010;2022-10-31T17:17:02;101550.78;;;11.66;100.00
20444;BME280;10381;53.730;10.010;2022-10-31T17:21:03;101547.03;;;11.68;100.00
20444;BME280;10381;53.730;10.010;2022-10-31T17:25:07;101546.94;;;11.70;100.00
20444;BME280;10381;53.730;10.010;2022-10-31T17:29:08;101537.97;;;11.71;100.00
20444;BME280;10381;53.730;10.010;2022-10-31T17:33:12;101527.38;;;11.71;100.00
20444;BME280;10381;53.730;10.010;2022-10-31T17:37:14;101516.88;;;11.69;100.00
20444;BME280;10381;53.730;10.010;2022-10-31T17:41:14;101517.13;;;11.66;100.00
20444;BME280;10381;53.730;10.010;2022-10-31T17:45:14;101525.22;;;11.65;100.00
20444;BME280;10381;53.730;10.010;2022-10-31T17:49:15;101528.72;;;11.65;100.00
20444;BME280;10381;53.730;10.010;2022-10-31T17:53:15;101533.28;;;11.63;100.00
20444;BME280;10381;53.730;10.010;2022-10-31T17:57:15;101536.78;;;11.64;100.00
20444;BME280;10381;53.730;10.010;2022-10-31T18:01:17;101526.91;;;11.66;100.00
20444;BME280;10381;53.730;10.010;2022-10-31T18:05:18;101530.16;;;11.69;100.00
20444;BME280;10381;53.730;10.010;2022-10-31T18:09:18;101536.19;;;11.71;100.00
20444;BME280;10381;53.730;10.010;2022-10-31T18:13:18;101533.53;;;11.71;100.00
20444;BME280;10381;53.730;10.010;2022-10-31T18:17:19;101527.63;;;11.68;100.00
20444;BME280;10381;53.730;10.010;2022-10-31T18:21:20;101532.22;;;11.66;100.00
20444;BME280;10381;53.730;10.010;2022-10-31T18:25:20;101521.47;;;11.67;100.00
20444;BME280;10381;53.730;10.010;2022-10-31T18:29:21;101520.63;;;11.67;100.00
20444;BME280;10381;53.730;10.010;2022-10-31T18:33:21;101524.38;;;11.64;100.00
20444;BME280;10381;53.730;10.010;2022-10-31T18:37:22;101515.69;;;11.62;100.00
20444;BME280;10381;53.730;10.010;2022-10-31T18:41:22;101516.28;;;11.66;100.00
20444;BME280;10381;53.730;10.010;2022-10-31T18:45:22;101511.13;;;11.64;100.00
20444;BME280;10381;53.730;10.010;2022-10-31T18:49:23;101501.59;;;11.62;100.00
20444;BME280;10381;53.730;10.010;2022-10-31T18:53:24;101492.66;;;11.63;100.00
20444;BME280;10381;53.730;10.010;2022-10-31T18:57:25;101491.66;;;11.64;100.00
20444;BME280;10381;53.730;10.010;2022-10-31T19:01:26;101486.13;;;11.67;100.00
20444;BME280;10381;53.730;10.010;2022-10-31T19:05:26;101492.84;;;11.71;100.00
20444;BME280;10381;53.730;10.010;2022-10-31T19:09:27;101494.28;;;11.75;100.00
20444;BME280;10381;53.730;10.010;2022-10-31T19:13:31;101492.94;;;11.81;100.00
20444;BME280;10381;53.730;10.010;2022-10-31T19:17:31;101487.25;;;11.85;100.00
20444;BME280;10381;53.730;10.010;2022-10-31T19:21:32;101491.50;;;11.88;100.00
20444;BME280;10381;53.730;10.010;2022-10-31T19:25:32;101492.22;;;11.90;100.00
20444;BME280;10381;53.730;10.010;2022-10-31T19:29:32;101483.16;;;11.92;100.00
20444;BME280;10381;53.730;10.010;2022-10-31T19:33:33;101477.13;;;11.90;100.00
20444;BME280;10381;53.730;10.010;2022-10-31T19:37:38;101466.75;;;11.87;100.00
20444;BME280;10381;53.730;10.010;2022-10-31T19:41:38;101459.75;;;11.86;100.00
20444;BME280;10381;53.730;10.010;2022-10-31T19:45:39;101458.06;;;11.85;100.00
20444;BME280;10381;53.730;10.010;2022-10-31T19:49:39;101452.75;;;11.85;100.00
20444;BME280;10381;53.730;10.010;2022-10-31T19:53:40;101445.88;;;11.83;100.00
20444;BME280;10381;53.730;10.010;2022-10-31T19:57:40;101433.59;;;11.82;100.00
20444;BME280;10381;53.730;10.010;2022-10-31T20:01:41;101417.78;;;11.80;100.00
20444;BME280;10381;53.730;10.010;2022-10-31T20:05:41;101412.28;;;11.72;100.00
20444;BME280;10381;53.730;10.010;2022-10-31T20:09:45;101396.28;;;11.62;100.00
20444;BME280;10381;53.730;10.010;2022-10-31T20:13:46;101391.47;;;11.56;100.00
20444;BME280;10381;53.730;10.010;2022-10-31T20:17:46;101387.06;;;11.45;100.00
20444;BME280;10381;53.730;10.010;2022-10-31T20:21:46;101378.63;;;11.40;100.00
20444;BME280;10381;53.730;10.010;2022-10-31T20:25:49;101370.69;;;11.40;100.00
20444;BME280;10381;53.730;10.010;2022-10-31T20:29:50;101360.91;;;11.41;100.00
20444;BME280;10381;53.730;10.010;2022-10-31T20:33:50;101350.94;;;11.33;100.00
20444;BME280;10381;53.730;10.010;2022-10-31T20:37:52;101360.28;;;11.37;100.00
20444;BME280;10381;53.730;10.010;2022-10-31T20:41:52;101365.88;;;11.34;100.00
20444;BME280;10381;53.730;10.010;2022-10-31T20:45:58;101375.97;;;11.40;100.00
20444;BME280;10381;53.730;10.010;2022-10-31T20:49:59;101367.50;;;11.46;100.00
20444;BME280;10381;53.730;10.010;2022-10-31T20:54:00;101356.63;;;11.49;100.00
20444;BME280;10381;53.730;10.010;2022-10-31T20:58:01;101348.34;;;11.43;100.00
20444;BME280;10381;53.730;10.010;2022-10-31T21:02:01;101362.56;;;11.42;100.00
20444;BME280;10381;53.730;10.010;2022-10-31T21:06:02;101360.06;;;11.40;100.00
20444;BME280;10381;53.730;10.010;2022-10-31T21:10:04;101356.31;;;11.43;100.00
20444;BME280;10381;53.730;10.010;2022-10-31T21:14:13;101364.34;;;11.52;100.00
20444;BME280;10381;53.730;10.010;2022-10-31T21:18:14;101358.78;;;11.56;100.00
20444;BME280;10381;53.730;10.010;2022-10-31T21:22:14;101345.13;;;11.60;100.00
20444;BME280;10381;53.730;10.010;2022-10-31T21:26:17;101333.97;;;11.66;100.00
20444;BME280;10381;53.730;10.010;2022-10-31T21:30:19;101325.25;;;11.76;100.00
20444;BME280;10381;53.730;10.010;2022-10-31T21:34:20;101310.31;;;11.75;100.00
20444;BME280;10381;53.730;10.010;2022-10-31T21:38:20;101318.59;;;11.81;100.00
20444;BME280;10381;53.730;10.010;2022-10-31T21:42:21;101305.03;;;11.84;100.00
20444;BME280;10381;53.730;10.010;2022-10-31T21:46:27;101290.59;;;11.88;100.00
20444;BME280;10381;53.730;10.010;2022-10-31T21:50:28;101271.25;;;11.86;100.00
20444;BME280;10381;53.730;10.010;2022-10-31T21:54:29;101275.47;;;11.89;100.00
20444;BME280;10381;53.730;10.010;2022-10-31T21:58:32;101267.13;;;11.93;100.00
20444;BME280;10381;53.730;10.010;2022-10-31T22:02:32;101261.53;;;11.97;100.00
20444;BME280;10381;53.730;10.010;2022-10-31T22:06:33;101256.09;;;11.98;100.00
20444;BME280;10381;53.730;10.010;2022-10-31T22:10:34;101262.69;;;12.04;100.00
20444;BME280;10381;53.730;10.010;2022-10-31T22:14:34;101255.56;;;12.04;100.00
20444;BME280;10381;53.730;10.010;2022-10-31T22:18:35;101250.97;;;12.06;100.00
20444;BME280;10381;53.730;10.010;2022-10-31T22:22:35;101234.03;;;12.07;100.00
20444;BME280;10381;53.730;10.010;2022-10-31T22:26:36;101232.97;;;12.10;100.00
20444;BME280;10381;53.730;10.010;2022-10-31T22:30:37;101225.94;;;12.09;100.00